createdAt,value
2023-04-24T00:01:56.464Z,97303.75
2023-04-24T00:04:23.410Z,97300.91
2023-04-24T00:06:55.134Z,97301.34
2023-04-24T00:09:21.835Z,97309.22
2023-04-24T00:11:48.476Z,97318.59
2023-04-24T00:14:15.278Z,97314.69
2023-04-24T00:16:41.955Z,97323.69
2023-04-24T00:19:08.884Z,97321.72
2023-04-24T00:21:35.592Z,97318.53
2023-04-24T00:24:02.210Z,97315.41
2023-04-24T00:26:28.991Z,97308.34
2023-04-24T00:28:55.732Z,97312.34
2023-04-24T00:31:22.394Z,97310.78
2023-04-24T00:33:49.351Z,97327.19
2023-04-24T00:36:16.154Z,97331.44
2023-04-24T00:38:42.805Z,97328.69
2023-04-24T00:41:09.498Z,97323.63
2023-04-24T00:43:36.235Z,97319.75
2023-04-24T00:46:02.982Z,97315.81
2023-04-24T01:01:44.077Z,97305.56
2023-04-24T01:04:19.150Z,97305.91
2023-04-24T01:06:53.543Z,97301.72
2023-04-24T01:09:26.780Z,97300.47
2023-04-24T01:11:59.563Z,97295.88
2023-04-24T01:14:32.414Z,97303.66
2023-04-24T01:17:05.149Z,97295.00
2023-04-24T01:19:38.479Z,97290.34
2023-04-24T01:22:20.406Z,97296.97
2023-04-24T01:24:54.307Z,97289.53
2023-04-24T01:27:27.166Z,97290.34
2023-04-24T01:30:00.325Z,97284.09
2023-04-24T01:32:33.496Z,97284.88
2023-04-24T01:35:07.223Z,97279.81
2023-04-24T01:37:39.961Z,97279.34
2023-04-24T01:40:13.401Z,97278.66
2023-04-24T01:42:46.459Z,97278.66
2023-04-24T01:45:19.487Z,97274.72
2023-04-24T01:47:52.380Z,97267.78
2023-04-24T01:50:25.270Z,97259.50
2023-04-24T01:52:58.103Z,97259.50
2023-04-24T01:55:31.159Z,97260.66
2023-04-24T01:58:04.154Z,97252.81
2023-04-24T02:00:37.127Z,97268.88
2023-04-24T02:05:41.244Z,97269.25
2023-04-24T02:08:07.887Z,97276.25
2023-04-24T02:10:34.518Z,97262.16
2023-04-24T02:13:01.854Z,97276.69
2023-04-24T02:15:28.486Z,97270.84
2023-04-24T02:20:26.606Z,97272.81
2023-04-24T02:25:24.667Z,97277.94
2023-04-24T02:27:51.392Z,97276.81
2023-04-24T02:30:18.100Z,97267.38
2023-04-24T02:32:45.094Z,97265.13
2023-04-24T02:35:11.928Z,97264.69
2023-04-24T02:37:38.576Z,97264.75
2023-04-24T02:40:07.096Z,97274.84
2023-04-24T02:42:33.799Z,97265.00
2023-04-24T02:45:00.687Z,97277.56
2023-04-24T02:47:27.425Z,97280.28
2023-04-24T02:49:54.075Z,97280.66
2023-04-24T02:52:20.816Z,97279.94
2023-04-24T02:54:47.504Z,97300.59
2023-04-24T02:57:14.119Z,97292.03
2023-04-24T02:59:40.960Z,97283.81
2023-04-24T03:02:08.043Z,97287.81
2023-04-24T03:04:35.043Z,97285.56
2023-04-24T03:07:02.379Z,97286.81
2023-04-24T03:09:29.088Z,97267.72
2023-04-24T03:11:56.738Z,97263.41
2023-04-24T03:14:23.381Z,97262.25
2023-04-24T03:16:50.142Z,97269.34
2023-04-24T03:19:17.105Z,97265.09
2023-04-24T03:21:43.840Z,97262.78
2023-04-24T03:24:10.767Z,97253.38
2023-04-24T03:26:37.430Z,97249.13
2023-04-24T03:29:04.111Z,97262.81
2023-04-24T03:31:31.082Z,97258.13
2023-04-24T03:33:57.834Z,97260.88
2023-04-24T03:36:24.641Z,97269.47
2023-04-24T03:38:51.240Z,97271.41
2023-04-24T03:41:17.884Z,97268.25
2023-04-24T03:43:44.580Z,97273.34
2023-04-24T03:46:11.692Z,97266.72
2023-04-24T03:48:38.328Z,97265.16
2023-04-24T03:53:36.212Z,97256.09
2023-04-24T03:56:02.949Z,97255.31
2023-04-24T03:58:29.606Z,97260.44
2023-04-24T04:00:58.111Z,97250.72
2023-04-24T04:03:25.041Z,97259.75
2023-04-24T04:08:23.252Z,97267.16
2023-04-24T04:13:27.932Z,97261.31
2023-04-24T04:15:54.608Z,97272.28
2023-04-24T04:18:21.429Z,97269.09
2023-04-24T04:20:48.179Z,97271.50
2023-04-24T04:23:14.900Z,97279.69
2023-04-24T04:25:41.692Z,97280.50
2023-04-24T04:28:08.358Z,97291.78
2023-04-24T04:30:35.153Z,97300.34
2023-04-24T04:33:02.422Z,97302.69
2023-04-24T04:35:29.126Z,97307.03
2023-04-24T04:37:55.764Z,97317.22
2023-04-24T04:40:22.459Z,97345.00
2023-04-24T04:42:49.243Z,97341.91
2023-04-24T04:45:18.111Z,97340.78
2023-04-24T04:47:45.594Z,97350.53
2023-04-24T04:50:12.393Z,97351.34
2023-04-24T04:52:39.569Z,97356.81
2023-04-24T04:55:06.871Z,97363.47
2023-04-24T04:57:33.601Z,97369.72
2023-04-24T05:00:00.255Z,97367.38
2023-04-24T05:02:26.961Z,97371.28
2023-04-24T05:04:53.871Z,97383.34
2023-04-24T05:07:20.882Z,97374.00
2023-04-24T05:09:47.738Z,97384.94
2023-04-24T05:12:14.480Z,97386.50
2023-04-24T05:17:14.228Z,97402.91
2023-04-24T05:19:41.391Z,97409.94
2023-04-24T05:22:08.236Z,97418.94
2023-04-24T05:24:35.375Z,97408.78
2023-04-24T05:27:03.629Z,97425.56
2023-04-24T05:29:32.171Z,97423.63
2023-04-24T05:31:59.292Z,97425.19
2023-04-24T05:34:26.154Z,97426.34
2023-04-24T05:36:52.953Z,97428.66
2023-04-24T05:39:20.821Z,97435.72
2023-04-24T05:41:47.536Z,97436.50
2023-04-24T05:46:51.939Z,97445.47
2023-04-24T05:49:18.657Z,97447.41
2023-04-24T05:51:45.413Z,97449.78
2023-04-24T05:54:13.371Z,97455.97
2023-04-24T05:56:42.524Z,97458.72
2023-04-24T05:59:10.079Z,97464.59
2023-04-24T06:01:37.363Z,97464.59
2023-04-24T06:04:05.104Z,97478.25
2023-04-24T06:06:32.544Z,97475.09
2023-04-24T06:09:00.033Z,97478.63
2023-04-24T06:11:26.766Z,97485.63
2023-04-24T06:13:53.410Z,97483.31
2023-04-24T06:16:20.101Z,97483.72
2023-04-24T06:18:48.321Z,97478.63
2023-04-24T06:21:14.950Z,97479.41
2023-04-24T06:23:41.581Z,97476.28
2023-04-24T06:26:08.213Z,97477.47
2023-04-24T06:28:34.944Z,97479.38
2023-04-24T06:31:01.582Z,97464.84
2023-04-24T06:33:28.274Z,97474.50
2023-04-24T06:35:54.913Z,97471.19
2023-04-24T06:38:21.660Z,97464.94
2023-04-24T06:40:48.318Z,97461.81
2023-04-24T06:43:16.094Z,97463.09
2023-04-24T06:45:44.466Z,97452.47
2023-04-24T06:48:11.381Z,97460.34
2023-04-24T06:50:38.035Z,97464.16
2023-04-24T06:53:04.747Z,97467.31
2023-04-24T06:55:32.020Z,97462.94
2023-04-24T06:57:58.659Z,97460.13
2023-04-24T07:00:25.590Z,97474.09
2023-04-24T07:02:52.420Z,97471.69
2023-04-24T07:05:21.133Z,97475.59
2023-04-24T07:07:48.849Z,97476.50
2023-04-24T07:10:15.701Z,97470.22
2023-04-24T07:12:42.627Z,97473.44
2023-04-24T07:15:10.038Z,97464.69
2023-04-24T07:17:36.813Z,97474.44
2023-04-24T07:20:03.807Z,97462.31
2023-04-24T07:22:30.478Z,97469.44
2023-04-24T07:27:28.328Z,97473.34
2023-04-24T07:29:54.978Z,97466.50
2023-04-24T07:32:21.627Z,97471.28
2023-04-24T07:34:48.247Z,97491.59
2023-04-24T07:37:14.972Z,97496.34
2023-04-24T07:39:42.293Z,97497.97
2023-04-24T07:44:42.709Z,97487.72
2023-04-24T07:47:09.637Z,97505.69
2023-04-24T07:49:36.491Z,97502.97
2023-04-24T07:52:03.753Z,97508.75
2023-04-24T07:57:05.518Z,97507.72
2023-04-24T07:59:32.236Z,97508.53
2023-04-24T08:01:58.999Z,97528.88
2023-04-24T08:04:25.816Z,97510.59
2023-04-24T08:06:52.756Z,97532.84
2023-04-24T08:11:52.969Z,97546.66
2023-04-24T08:14:19.698Z,97539.16
2023-04-24T08:19:24.722Z,97541.34
2023-04-24T08:21:51.381Z,97541.28
2023-04-24T08:24:18.051Z,97540.19
2023-04-24T08:26:44.812Z,97541.22
2023-04-24T08:29:11.567Z,97554.78
2023-04-24T08:31:38.218Z,97557.38
2023-04-24T08:34:04.878Z,97559.16
2023-04-24T08:36:43.615Z,97561.50
2023-04-24T08:39:13.780Z,97567.84
2023-04-24T08:41:44.364Z,97572.59
2023-04-24T08:44:11.365Z,97568.69
2023-04-24T08:49:09.882Z,97571.69
2023-04-24T08:51:38.121Z,97573.59
2023-04-24T08:54:05.882Z,97576.41
2023-04-24T08:56:35.280Z,97575.38
2023-04-24T08:59:02.754Z,97577.53
2023-04-24T09:01:30.350Z,97581.47
2023-04-24T09:03:57.813Z,97591.09
2023-04-24T09:06:24.572Z,97590.28
2023-04-24T09:08:55.353Z,97590.31
2023-04-24T09:11:22.394Z,97588.28
2023-04-24T09:13:49.468Z,97600.78
2023-04-24T09:16:16.483Z,97603.16
2023-04-24T09:18:43.138Z,97596.56
2023-04-24T09:21:10.937Z,97603.97
2023-04-24T09:23:37.619Z,97597.00
2023-04-24T09:26:10.659Z,97611.94
2023-04-24T09:28:39.691Z,97608.81
2023-04-24T09:31:19.602Z,97625.31
2023-04-24T09:34:07.170Z,97626.19
2023-04-24T09:36:38.405Z,97627.41
2023-04-24T09:39:12.884Z,97644.97
2023-04-24T09:41:58.952Z,97634.81
2023-04-24T09:44:27.788Z,97645.38
2023-04-24T09:46:56.936Z,97643.78
2023-04-24T09:49:25.722Z,97645.75
2023-04-24T09:51:53.214Z,97639.53
2023-04-24T09:54:22.527Z,97637.06
2023-04-24T09:56:51.386Z,97652.25
2023-04-24T09:59:21.051Z,97642.97
2023-04-24T10:01:49.829Z,97639.41
2023-04-24T10:04:18.532Z,97634.34
2023-04-24T10:06:46.017Z,97647.31
2023-04-24T10:11:46.724Z,97648.53
2023-04-24T10:14:17.512Z,97659.16
2023-04-24T10:16:45.528Z,97653.66
2023-04-24T10:19:14.309Z,97653.75
2023-04-24T10:21:47.729Z,97648.81
2023-04-24T10:24:16.492Z,97656.44
2023-04-24T10:26:44.649Z,97646.09
2023-04-24T10:29:13.882Z,97651.53
2023-04-24T10:31:41.244Z,97659.91
2023-04-24T10:34:09.222Z,97656.53
2023-04-24T10:36:37.819Z,97654.97
2023-04-24T10:39:09.430Z,97659.22
2023-04-24T10:41:38.952Z,97665.34
2023-04-24T10:44:11.110Z,97658.69
2023-04-24T10:46:39.315Z,97670.94
2023-04-24T10:49:10.237Z,97673.09
2023-04-24T10:51:52.090Z,97671.22
2023-04-24T10:54:25.652Z,97677.91
2023-04-24T10:56:53.288Z,97672.94
2023-04-24T10:59:27.909Z,97683.94
2023-04-24T11:01:56.528Z,97689.03
2023-04-24T11:04:34.110Z,97693.34
2023-04-24T11:07:01.195Z,97688.63
2023-04-24T11:09:31.311Z,97685.47
2023-04-24T11:12:10.262Z,97689.03
2023-04-24T11:17:33.027Z,97696.75
2023-04-24T11:20:22.961Z,97690.44
2023-04-24T11:22:56.053Z,97696.19
2023-04-24T11:25:26.371Z,97701.69
2023-04-24T11:28:05.061Z,97711.88
2023-04-24T11:30:32.599Z,97711.09
2023-04-24T11:35:40.239Z,97710.63
2023-04-24T11:38:23.499Z,97710.66
2023-04-24T11:40:52.466Z,97717.28
2023-04-24T11:43:21.029Z,97721.25
2023-04-24T11:45:51.079Z,97725.94
2023-04-24T11:48:23.855Z,97721.97
2023-04-24T11:50:51.673Z,97714.09
2023-04-24T11:53:21.893Z,97723.53
2023-04-24T11:55:48.525Z,97715.75
2023-04-24T12:00:47.371Z,97719.72
2023-04-24T12:03:14.350Z,97736.66
2023-04-24T12:05:42.148Z,97733.13
2023-04-24T12:08:09.119Z,97731.25
2023-04-24T12:10:37.489Z,97735.56
2023-04-24T12:13:04.456Z,97727.66
2023-04-24T12:15:31.296Z,97738.56
2023-04-24T12:17:58.663Z,97738.13
2023-04-24T12:25:34.225Z,97741.63
2023-04-24T12:28:06.805Z,97738.88
2023-04-24T12:30:36.955Z,97738.97
2023-04-24T12:33:04.254Z,97738.97
2023-04-24T12:35:34.790Z,97733.88
2023-04-24T12:40:42.903Z,97730.03
2023-04-24T12:43:16.980Z,97735.50
2023-04-24T12:45:43.822Z,97740.56
2023-04-24T12:48:10.685Z,97737.47
2023-04-24T12:50:37.538Z,97742.16
2023-04-24T12:53:04.213Z,97741.03
2023-04-24T12:55:30.936Z,97746.53
2023-04-24T12:57:57.652Z,97740.25
2023-04-24T13:00:24.472Z,97741.41
2023-04-24T13:02:51.610Z,97737.09
2023-04-24T13:05:18.623Z,97736.28
2023-04-24T13:07:45.536Z,97741.03
2023-04-24T13:10:12.492Z,97742.56
2023-04-24T13:12:39.905Z,97738.69
2023-04-24T13:15:07.741Z,97751.22
2023-04-24T13:17:34.641Z,97764.53
2023-04-24T13:20:01.298Z,97755.56
2023-04-24T13:22:28.591Z,97761.41
2023-04-24T13:24:55.765Z,97748.06
2023-04-24T13:27:22.496Z,97744.94
2023-04-24T13:29:49.120Z,97752.63
2023-04-24T13:32:16.177Z,97742.28
2023-04-24T13:34:42.983Z,97742.84
2023-04-24T13:37:09.723Z,97748.34
2023-04-24T13:39:36.558Z,97743.31
2023-04-24T13:42:04.780Z,97746.91
2023-04-24T13:44:32.214Z,97743.03
2023-04-24T13:46:59.470Z,97744.59
2023-04-24T13:49:27.259Z,97744.66
2023-04-24T13:51:55.181Z,97747.13
2023-04-24T13:54:21.845Z,97739.34
2023-04-24T13:56:48.549Z,97742.88
2023-04-24T13:59:15.170Z,97740.59
2023-04-24T14:01:41.901Z,97751.97
2023-04-24T14:04:08.698Z,97752.34
2023-04-24T14:06:35.607Z,97755.50
2023-04-24T14:09:02.276Z,97755.88
2023-04-24T14:11:29.010Z,97753.94
2023-04-24T14:13:57.566Z,97762.91
2023-04-24T14:16:24.316Z,97751.41
2023-04-24T14:18:51.360Z,97741.25
2023-04-24T14:21:18.033Z,97755.19
2023-04-24T14:26:22.983Z,97755.81
2023-04-24T14:28:50.210Z,97742.84
2023-04-24T14:31:17.726Z,97745.88
2023-04-24T14:33:44.731Z,97742.13
2023-04-24T14:38:48.642Z,97744.34
2023-04-24T14:41:15.552Z,97744.78
2023-04-24T14:43:42.302Z,97745.91
2023-04-24T14:46:09.213Z,97744.25
2023-04-24T14:48:35.971Z,97747.63
2023-04-24T14:51:02.716Z,97745.44
2023-04-24T14:53:29.442Z,97739.34
2023-04-24T14:55:56.162Z,97747.19
2023-04-24T14:58:22.933Z,97750.41
2023-04-24T15:00:53.070Z,97748.97
2023-04-24T15:03:22.571Z,97760.72
2023-04-24T15:05:49.540Z,97748.59
2023-04-24T15:08:16.196Z,97746.97
2023-04-24T15:10:43.430Z,97735.91
2023-04-24T15:13:10.188Z,97734.63
2023-04-24T15:47:05.646Z,97759.34
2023-04-24T15:49:38.398Z,97765.63
2023-04-24T15:54:44.680Z,97760.97
2023-04-24T15:57:11.430Z,97756.66
2023-04-24T15:59:38.169Z,97759.78
2023-04-24T16:02:05.162Z,97760.56
2023-04-24T16:07:04.376Z,97759.41
2023-04-24T16:09:31.150Z,97754.72
2023-04-24T16:11:58.221Z,97753.16
2023-04-24T16:14:25.337Z,97752.38
2023-04-24T16:16:52.023Z,97752.75
2023-04-24T16:19:18.684Z,97753.91
2023-04-24T16:21:45.595Z,97753.16
2023-04-24T16:24:12.322Z,97742.63
2023-04-24T16:26:39.942Z,97755.53
2023-04-24T16:29:06.594Z,97760.25
2023-04-24T16:31:33.729Z,97750.06
2023-04-24T16:34:00.573Z,97758.88
2023-04-24T16:36:27.234Z,97752.53
2023-04-24T16:38:53.976Z,97753.28
2023-04-24T16:41:20.687Z,97746.34
2023-04-24T16:43:47.298Z,97749.88
2023-04-24T16:48:47.495Z,97750.38
2023-04-24T16:51:14.252Z,97743.69
2023-04-24T16:53:40.962Z,97749.56
2023-04-24T16:56:07.636Z,97751.94
2023-04-24T16:58:34.357Z,97757.06
2023-04-24T17:01:01.087Z,97752.34
2023-04-24T17:03:27.853Z,97745.69
2023-04-24T17:05:54.604Z,97745.31
2023-04-24T17:08:22.809Z,97746.88
2023-04-24T17:10:49.660Z,97742.59
2023-04-24T17:13:16.315Z,97748.09
2023-04-24T17:15:42.995Z,97743.41
2023-04-24T17:23:21.070Z,97746.91
2023-04-24T17:25:47.739Z,97742.25
2023-04-24T17:28:28.451Z,97740.25
2023-04-24T17:30:58.453Z,97739.91
2023-04-24T17:33:26.724Z,97741.06
2023-04-24T17:35:53.706Z,97734.03
2023-04-24T17:38:20.668Z,97736.38
2023-04-24T17:40:47.400Z,97743.03
2023-04-24T17:43:18.366Z,97752.81
2023-04-24T17:45:45.864Z,97743.03
2023-04-24T17:48:16.884Z,97745.00
2023-04-24T17:50:43.787Z,97740.31
2023-04-24T17:53:11.442Z,97739.16
2023-04-24T17:55:39.443Z,97742.69
2023-04-24T17:58:06.481Z,97741.47
2023-04-24T18:00:34.473Z,97749.28
2023-04-24T18:03:03.973Z,97747.34
2023-04-24T18:05:32.496Z,97748.13
2023-04-24T18:07:59.978Z,97741.88
2023-04-24T18:10:27.910Z,97746.19
2023-04-24T18:12:54.903Z,97742.69
2023-04-24T18:15:22.104Z,97754.41
2023-04-24T18:17:49.017Z,97749.31
2023-04-24T18:22:55.756Z,97756.34
2023-04-24T18:25:27.101Z,97759.50
2023-04-24T18:27:55.115Z,97767.69
2023-04-24T18:30:22.776Z,97765.38
2023-04-24T18:32:50.757Z,97777.09
2023-04-24T18:35:17.704Z,97779.03
2023-04-24T18:42:48.994Z,97780.63
2023-04-24T18:45:15.826Z,97780.19
2023-04-24T18:47:43.817Z,97777.84
2023-04-24T18:50:11.293Z,97775.91
2023-04-24T18:52:38.288Z,97775.91
2023-04-24T18:55:06.902Z,97777.09
2023-04-24T18:57:33.960Z,97778.66
2023-04-24T19:00:00.614Z,97778.25
2023-04-24T19:02:27.460Z,97778.63
2023-04-24T19:04:54.174Z,97782.53
2023-04-24T19:07:21.566Z,97785.28
2023-04-24T19:09:48.229Z,97790.38
2023-04-24T19:12:15.008Z,97796.25
2023-04-24T19:14:41.683Z,97788.78
2023-04-24T19:17:10.257Z,97798.19
2023-04-24T19:19:37.196Z,97796.22
2023-04-24T19:22:04.151Z,97798.59
2023-04-24T19:24:33.436Z,97802.88
2023-04-24T19:27:00.271Z,97808.28
2023-04-24T19:29:26.890Z,97806.31
2023-04-24T19:31:54.732Z,97805.94
2023-04-24T19:34:21.613Z,97811.78
2023-04-24T19:36:48.313Z,97804.72
2023-04-24T19:39:15.764Z,97803.16
2023-04-24T19:41:42.376Z,97810.19
2023-04-24T19:44:09.125Z,97805.13
2023-04-24T19:46:35.895Z,97809.78
2023-04-24T19:49:02.597Z,97812.53
2023-04-24T19:51:29.211Z,97815.22
2023-04-24T19:53:56.206Z,97814.03
2023-04-24T20:01:32.794Z,97813.66
2023-04-24T20:03:59.725Z,97810.53
2023-04-24T20:06:26.481Z,97812.84
2023-04-24T20:08:53.124Z,97812.09
2023-04-24T20:11:19.858Z,97817.63
2023-04-24T20:13:46.511Z,97808.97
2023-04-24T20:16:13.305Z,97814.44
2023-04-24T20:18:40.170Z,97806.97
2023-04-24T20:21:06.904Z,97812.84
2023-04-24T20:23:33.726Z,97815.19
2023-04-24T20:26:01.234Z,97811.25
2023-04-24T20:28:30.379Z,97814.78
2023-04-24T20:30:58.844Z,97813.94
2023-04-24T20:33:28.105Z,97813.59
2023-04-24T20:35:54.904Z,97816.69
2023-04-24T20:38:22.993Z,97828.03
2023-04-24T20:40:57.721Z,97820.50
2023-04-24T20:45:58.528Z,97814.25
2023-04-24T20:48:26.804Z,97814.31
2023-04-24T20:50:54.127Z,97812.31
2023-04-24T20:53:21.237Z,97811.13
2023-04-24T20:58:25.879Z,97814.22
2023-04-24T21:00:52.725Z,97819.66
2023-04-24T21:03:20.037Z,97809.88
2023-04-24T21:05:46.791Z,97813.38
2023-04-24T21:08:13.495Z,97813.34
2023-04-24T21:10:40.192Z,97810.28
2023-04-24T21:13:06.846Z,97815.25
2023-04-24T21:15:33.951Z,97812.06
2023-04-24T21:18:01.328Z,97817.22
2023-04-24T21:20:28.028Z,97812.53
2023-04-24T21:22:54.711Z,97808.97
2023-04-24T21:25:21.406Z,97802.31
2023-04-24T21:27:48.404Z,97799.22
2023-04-24T21:30:15.263Z,97796.00
2023-04-24T21:32:42.031Z,97801.13
2023-04-24T21:35:09.090Z,97794.50
2023-04-24T21:37:37.992Z,97783.56
2023-04-24T21:40:05.088Z,97793.34
2023-04-24T21:42:31.965Z,97786.69
2023-04-24T21:44:58.783Z,97786.72
2023-04-24T21:47:25.514Z,97778.88
2023-04-24T21:49:52.179Z,97776.56
2023-04-24T21:52:18.832Z,97782.03
2023-04-24T21:54:45.449Z,97784.75
2023-04-24T21:57:12.723Z,97782.91
2023-04-24T21:59:39.650Z,97775.38
2023-04-24T22:02:06.440Z,97779.69
2023-04-24T22:04:33.438Z,97768.72
2023-04-24T22:07:00.226Z,97768.84
2023-04-24T22:09:26.976Z,97768.00
2023-04-24T22:11:54.031Z,97759.41
2023-04-24T22:14:21.151Z,97758.56
2023-04-24T22:16:48.033Z,97753.13
2023-04-24T22:19:14.901Z,97757.44
2023-04-24T22:21:42.125Z,97755.81
2023-04-24T22:24:09.442Z,97751.16
2023-04-24T22:26:36.078Z,97749.63
2023-04-24T22:29:03.161Z,97751.63
2023-04-24T22:31:29.888Z,97747.34
2023-04-24T22:33:56.558Z,97748.53
2023-04-24T22:36:23.274Z,97742.25
2023-04-24T22:38:49.897Z,97741.81
2023-04-24T22:41:16.702Z,97740.91
2023-04-24T22:43:43.418Z,97737.44
2023-04-24T22:46:10.121Z,97742.53
2023-04-24T22:48:36.799Z,97732.72
2023-04-24T22:51:03.522Z,97735.91
2023-04-24T22:56:01.446Z,97725.75
2023-04-24T23:11:30.815Z,97720.41
2023-04-24T23:13:57.532Z,97716.50
2023-04-24T23:16:24.251Z,97717.22
2023-04-24T23:18:51.367Z,97714.84
2023-04-24T23:23:53.092Z,97718.72
2023-04-24T23:26:19.815Z,97716.44
2023-04-24T23:28:46.419Z,97718.72
2023-04-24T23:31:13.092Z,97710.97
2023-04-24T23:33:39.732Z,97723.84
2023-04-24T23:36:06.530Z,97720.34
2023-04-24T23:38:46.584Z,97721.06
2023-04-24T23:41:16.615Z,97717.50
2023-04-24T23:43:43.250Z,97724.16
2023-04-24T23:46:09.948Z,97717.44
2023-04-24T23:48:37.352Z,97720.19
2023-04-24T23:51:04.215Z,97733.09
2023-04-24T23:53:30.872Z,97723.31
2023-04-24T23:55:57.687Z,97725.97
2023-04-24T23:58:24.366Z,97724.38
